sensor_id;sensor_type;location;lat;lon;timestamp;P1;durP1;ratioP1;P2;durP2;ratioP2
19951;SDS011;10137;49.406;19.484;2023-04-16T00:00:57;11.73;;;8.27;;
19951;SDS011;10137;49.406;19.484;2023-04-16T00:03:26;11.20;;;7.20;;
19951;SDS011;10137;49.406;19.484;2023-04-16T00:05:54;16.07;;;8.23;;
19951;SDS011;10137;49.406;19.484;2023-04-16T00:08:22;22.73;;;11.13;;
19951;SDS011;10137;49.406;19.484;2023-04-16T00:10:51;28.67;;;12.33;;
19951;SDS011;10137;49.406;19.484;2023-04-16T00:13:19;22.77;;;11.40;;
19951;SDS011;10137;49.406;19.484;2023-04-16T00:15:48;19.77;;;10.00;;
19951;SDS011;10137;49.406;19.484;2023-04-16T00:18:18;16.00;;;8.73;;
19951;SDS011;10137;49.406;19.484;2023-04-16T00:20:46;14.60;;;8.23;;
19951;SDS011;10137;49.406;19.484;2023-04-16T00:23:15;14.13;;;9.00;;
19951;SDS011;10137;49.406;19.484;2023-04-16T00:25:44;16.17;;;9.63;;
19951;SDS011;10137;49.406;19.484;2023-04-16T00:28:12;15.70;;;9.40;;
19951;SDS011;10137;49.406;19.484;2023-04-16T00:30:40;18.27;;;9.97;;
19951;SDS011;10137;49.406;19.484;2023-04-16T00:33:08;14.50;;;8.23;;
19951;SDS011;10137;49.406;19.484;2023-04-16T00:35:38;15.97;;;8.23;;
19951;SDS011;10137;49.406;19.484;2023-04-16T00:38:06;12.97;;;7.77;;
19951;SDS011;10137;49.406;19.484;2023-04-16T00:40:34;20.50;;;9.63;;
19951;SDS011;10137;49.406;19.484;2023-04-16T00:43:03;28.37;;;12.77;;
19951;SDS011;10137;49.406;19.484;2023-04-16T00:45:31;14.47;;;7.50;;
19951;SDS011;10137;49.406;19.484;2023-04-16T00:47:59;13.90;;;6.77;;
19951;SDS011;10137;49.406;19.484;2023-04-16T00:50:28;10.27;;;6.17;;
19951;SDS011;10137;49.406;19.484;2023-04-16T00:52:57;12.60;;;6.37;;
19951;SDS011;10137;49.406;19.484;2023-04-16T00:55:26;12.80;;;6.00;;
19951;SDS011;10137;49.406;19.484;2023-04-16T00:57:54;11.77;;;5.57;;
19951;SDS011;10137;49.406;19.484;2023-04-16T01:00:22;11.57;;;6.07;;
19951;SDS011;10137;49.406;19.484;2023-04-16T01:02:52;13.97;;;6.50;;
19951;SDS011;10137;49.406;19.484;2023-04-16T01:05:20;22.00;;;8.37;;
19951;SDS011;10137;49.406;19.484;2023-04-16T01:07:49;22.83;;;10.60;;
19951;SDS011;10137;49.406;19.484;2023-04-16T01:10:18;21.50;;;9.43;;
19951;SDS011;10137;49.406;19.484;2023-04-16T01:12:46;17.37;;;7.80;;
19951;SDS011;10137;49.406;19.484;2023-04-16T01:15:15;16.70;;;7.00;;
19951;SDS011;10137;49.406;19.484;2023-04-16T01:17:43;11.83;;;6.27;;
19951;SDS011;10137;49.406;19.484;2023-04-16T01:20:12;18.43;;;12.10;;
19951;SDS011;10137;49.406;19.484;2023-04-16T01:22:42;9.83;;;5.87;;
19951;SDS011;10137;49.406;19.484;2023-04-16T01:25:12;9.93;;;5.67;;
19951;SDS011;10137;49.406;19.484;2023-04-16T01:27:41;13.20;;;7.30;;
19951;SDS011;10137;49.406;19.484;2023-04-16T01:30:10;10.73;;;6.03;;
19951;SDS011;10137;49.406;19.484;2023-04-16T01:32:38;11.10;;;6.90;;
19951;SDS011;10137;49.406;19.484;2023-04-16T01:35:07;11.67;;;8.20;;
19951;SDS011;10137;49.406;19.484;2023-04-16T01:37:35;11.70;;;7.30;;
19951;SDS011;10137;49.406;19.484;2023-04-16T01:40:05;10.63;;;6.63;;
19951;SDS011;10137;49.406;19.484;2023-04-16T01:42:34;13.97;;;7.27;;
19951;SDS011;10137;49.406;19.484;2023-04-16T01:45:04;14.30;;;7.30;;
19951;SDS011;10137;49.406;19.484;2023-04-16T01:47:36;12.97;;;7.33;;
19951;SDS011;10137;49.406;19.484;2023-04-16T01:50:04;12.10;;;7.17;;
19951;SDS011;10137;49.406;19.484;2023-04-16T01:52:34;10.70;;;5.70;;
19951;SDS011;10137;49.406;19.484;2023-04-16T01:55:02;11.67;;;5.90;;
19951;SDS011;10137;49.406;19.484;2023-04-16T01:57:32;12.70;;;6.03;;
19951;SDS011;10137;49.406;19.484;2023-04-16T02:00:00;14.47;;;6.40;;
19951;SDS011;10137;49.406;19.484;2023-04-16T02:02:29;9.27;;;5.77;;
19951;SDS011;10137;49.406;19.484;2023-04-16T02:04:57;10.33;;;6.23;;
19951;SDS011;10137;49.406;19.484;2023-04-16T02:07:25;11.33;;;6.27;;
19951;SDS011;10137;49.406;19.484;2023-04-16T02:09:54;9.83;;;5.77;;
19951;SDS011;10137;49.406;19.484;2023-04-16T02:12:24;11.20;;;6.03;;
19951;SDS011;10137;49.406;19.484;2023-04-16T02:14:53;11.03;;;7.97;;
19951;SDS011;10137;49.406;19.484;2023-04-16T02:17:22;31.83;;;23.17;;
19951;SDS011;10137;49.406;19.484;2023-04-16T02:19:50;11.63;;;7.90;;
19951;SDS011;10137;49.406;19.484;2023-04-16T02:22:18;14.03;;;6.03;;
19951;SDS011;10137;49.406;19.484;2023-04-16T02:24:46;13.07;;;7.90;;
19951;SDS011;10137;49.406;19.484;2023-04-16T02:27:15;10.43;;;5.93;;
19951;SDS011;10137;49.406;19.484;2023-04-16T02:29:44;11.57;;;8.17;;
19951;SDS011;10137;49.406;19.484;2023-04-16T02:32:13;12.90;;;6.80;;
19951;SDS011;10137;49.406;19.484;2023-04-16T02:34:42;13.27;;;8.10;;
19951;SDS011;10137;49.406;19.484;2023-04-16T02:37:10;12.03;;;6.37;;
19951;SDS011;10137;49.406;19.484;2023-04-16T02:39:40;11.53;;;5.70;;
19951;SDS011;10137;49.406;19.484;2023-04-16T02:42:09;10.10;;;5.53;;
19951;SDS011;10137;49.406;19.484;2023-04-16T02:44:37;10.80;;;5.77;;
19951;SDS011;10137;49.406;19.484;2023-04-16T02:47:05;9.53;;;5.87;;
19951;SDS011;10137;49.406;19.484;2023-04-16T02:49:34;11.27;;;6.37;;
19951;SDS011;10137;49.406;19.484;2023-04-16T02:52:03;12.27;;;7.17;;
19951;SDS011;10137;49.406;19.484;2023-04-16T02:54:31;12.50;;;7.40;;
19951;SDS011;10137;49.406;19.484;2023-04-16T02:56:59;10.40;;;6.27;;
19951;SDS011;10137;49.406;19.484;2023-04-16T02:59:28;11.80;;;6.47;;
19951;SDS011;10137;49.406;19.484;2023-04-16T03:01:57;15.63;;;6.93;;
19951;SDS011;10137;49.406;19.484;2023-04-16T03:04:25;16.70;;;7.40;;
19951;SDS011;10137;49.406;19.484;2023-04-16T03:06:54;12.10;;;6.60;;
19951;SDS011;10137;49.406;19.484;2023-04-16T03:09:25;13.53;;;7.03;;
19951;SDS011;10137;49.406;19.484;2023-04-16T03:11:52;11.77;;;6.53;;
19951;SDS011;10137;49.406;19.484;2023-04-16T03:14:22;9.50;;;6.73;;
19951;SDS011;10137;49.406;19.484;2023-04-16T03:16:50;10.80;;;6.33;;
19951;SDS011;10137;49.406;19.484;2023-04-16T03:19:19;12.10;;;5.83;;
19951;SDS011;10137;49.406;19.484;2023-04-16T03:21:47;11.23;;;6.13;;
19951;SDS011;10137;49.406;19.484;2023-04-16T03:24:17;10.50;;;6.20;;
19951;SDS011;10137;49.406;19.484;2023-04-16T03:26:45;10.43;;;5.90;;
19951;SDS011;10137;49.406;19.484;2023-04-16T03:29:13;8.77;;;5.53;;
19951;SDS011;10137;49.406;19.484;2023-04-16T03:31:41;9.57;;;5.90;;
19951;SDS011;10137;49.406;19.484;2023-04-16T03:34:09;10.23;;;5.70;;
19951;SDS011;10137;49.406;19.484;2023-04-16T03:36:37;8.07;;;4.97;;
19951;SDS011;10137;49.406;19.484;2023-04-16T03:39:06;12.27;;;5.00;;
19951;SDS011;10137;49.406;19.484;2023-04-16T03:41:35;8.03;;;5.10;;
19951;SDS011;10137;49.406;19.484;2023-04-16T03:44:04;9.40;;;5.40;;
19951;SDS011;10137;49.406;19.484;2023-04-16T03:46:32;8.87;;;5.60;;
19951;SDS011;10137;49.406;19.484;2023-04-16T03:49:00;13.27;;;6.77;;
19951;SDS011;10137;49.406;19.484;2023-04-16T03:51:28;11.90;;;7.67;;
19951;SDS011;10137;49.406;19.484;2023-04-16T03:53:57;7.97;;;5.73;;
19951;SDS011;10137;49.406;19.484;2023-04-16T03:56:25;11.17;;;5.97;;
19951;SDS011;10137;49.406;19.484;2023-04-16T03:58:55;8.77;;;5.30;;
19951;SDS011;10137;49.406;19.484;2023-04-16T04:01:23;12.63;;;5.67;;
19951;SDS011;10137;49.406;19.484;2023-04-16T04:03:51;10.00;;;5.53;;
19951;SDS011;10137;49.406;19.484;2023-04-16T04:06:20;9.70;;;5.90;;
19951;SDS011;10137;49.406;19.484;2023-04-16T04:08:48;12.17;;;5.87;;
19951;SDS011;10137;49.406;19.484;2023-04-16T04:11:16;9.33;;;5.13;;
19951;SDS011;10137;49.406;19.484;2023-04-16T04:13:47;10.53;;;4.90;;
19951;SDS011;10137;49.406;19.484;2023-04-16T04:16:17;11.17;;;5.63;;
19951;SDS011;10137;49.406;19.484;2023-04-16T04:18:45;11.23;;;5.93;;
19951;SDS011;10137;49.406;19.484;2023-04-16T04:21:13;10.50;;;6.07;;
19951;SDS011;10137;49.406;19.484;2023-04-16T04:23:42;12.93;;;9.07;;
19951;SDS011;10137;49.406;19.484;2023-04-16T04:26:10;17.17;;;10.43;;
19951;SDS011;10137;49.406;19.484;2023-04-16T04:28:38;28.13;;;18.97;;
19951;SDS011;10137;49.406;19.484;2023-04-16T04:31:06;26.90;;;16.67;;
19951;SDS011;10137;49.406;19.484;2023-04-16T04:33:36;42.30;;;26.47;;
19951;SDS011;10137;49.406;19.484;2023-04-16T04:36:05;26.83;;;16.47;;
19951;SDS011;10137;49.406;19.484;2023-04-16T04:38:34;21.73;;;13.03;;
19951;SDS011;10137;49.406;19.484;2023-04-16T04:41:02;23.30;;;13.60;;
19951;SDS011;10137;49.406;19.484;2023-04-16T04:43:30;27.30;;;14.50;;
19951;SDS011;10137;49.406;19.484;2023-04-16T04:45:59;27.63;;;12.70;;
19951;SDS011;10137;49.406;19.484;2023-04-16T04:48:27;25.93;;;13.40;;
19951;SDS011;10137;49.406;19.484;2023-04-16T04:50:56;28.80;;;14.57;;
19951;SDS011;10137;49.406;19.484;2023-04-16T04:53:25;43.80;;;21.60;;
19951;SDS011;10137;49.406;19.484;2023-04-16T04:55:53;36.07;;;16.83;;
19951;SDS011;10137;49.406;19.484;2023-04-16T04:58:21;44.13;;;21.87;;
19951;SDS011;10137;49.406;19.484;2023-04-16T05:00:50;30.07;;;14.30;;
19951;SDS011;10137;49.406;19.484;2023-04-16T05:03:18;38.63;;;17.10;;
19951;SDS011;10137;49.406;19.484;2023-04-16T05:05:47;35.60;;;18.63;;
19951;SDS011;10137;49.406;19.484;2023-04-16T05:08:16;43.00;;;19.07;;
19951;SDS011;10137;49.406;19.484;2023-04-16T05:10:43;44.23;;;21.10;;
19951;SDS011;10137;49.406;19.484;2023-04-16T05:13:10;34.70;;;16.23;;
19951;SDS011;10137;49.406;19.484;2023-04-16T05:15:38;27.77;;;13.43;;
19951;SDS011;10137;49.406;19.484;2023-04-16T05:18:07;22.43;;;11.97;;
19951;SDS011;10137;49.406;19.484;2023-04-16T05:20:35;32.53;;;15.60;;
19951;SDS011;10137;49.406;19.484;2023-04-16T05:23:06;24.90;;;13.83;;
19951;SDS011;10137;49.406;19.484;2023-04-16T05:25:38;24.10;;;11.93;;
19951;SDS011;10137;49.406;19.484;2023-04-16T05:28:06;38.20;;;20.57;;
19951;SDS011;10137;49.406;19.484;2023-04-16T05:30:35;30.73;;;14.17;;
19951;SDS011;10137;49.406;19.484;2023-04-16T05:33:03;34.90;;;17.87;;
19951;SDS011;10137;49.406;19.484;2023-04-16T05:35:31;29.20;;;13.00;;
19951;SDS011;10137;49.406;19.484;2023-04-16T05:38:00;39.10;;;18.37;;
19951;SDS011;10137;49.406;19.484;2023-04-16T05:40:30;33.30;;;17.17;;
19951;SDS011;10137;49.406;19.484;2023-04-16T05:42:59;27.40;;;13.40;;
19951;SDS011;10137;49.406;19.484;2023-04-16T05:45:28;23.73;;;11.97;;
19951;SDS011;10137;49.406;19.484;2023-04-16T05:47:58;23.30;;;12.33;;
19951;SDS011;10137;49.406;19.484;2023-04-16T05:50:27;28.57;;;14.23;;
19951;SDS011;10137;49.406;19.484;2023-04-16T05:52:55;29.27;;;14.47;;
19951;SDS011;10137;49.406;19.484;2023-04-16T05:55:23;26.93;;;14.83;;
19951;SDS011;10137;49.406;19.484;2023-04-16T05:57:51;26.13;;;13.50;;
19951;SDS011;10137;49.406;19.484;2023-04-16T06:00:21;31.60;;;13.57;;
19951;SDS011;10137;49.406;19.484;2023-04-16T06:02:49;29.77;;;14.10;;
19951;SDS011;10137;49.406;19.484;2023-04-16T06:05:17;24.97;;;12.43;;
19951;SDS011;10137;49.406;19.484;2023-04-16T06:07:49;26.87;;;13.73;;
19951;SDS011;10137;49.406;19.484;2023-04-16T06:10:20;25.60;;;12.40;;
19951;SDS011;10137;49.406;19.484;2023-04-16T06:12:51;21.30;;;11.83;;
19951;SDS011;10137;49.406;19.484;2023-04-16T06:15:23;22.20;;;11.33;;
19951;SDS011;10137;49.406;19.484;2023-04-16T06:17:53;26.20;;;13.23;;
19951;SDS011;10137;49.406;19.484;2023-04-16T06:20:21;20.80;;;11.53;;
19951;SDS011;10137;49.406;19.484;2023-04-16T06:22:50;20.90;;;10.83;;
19951;SDS011;10137;49.406;19.484;2023-04-16T06:25:18;18.00;;;10.43;;
19951;SDS011;10137;49.406;19.484;2023-04-16T06:27:46;27.60;;;13.77;;
19951;SDS011;10137;49.406;19.484;2023-04-16T06:30:15;20.33;;;10.53;;
19951;SDS011;10137;49.406;19.484;2023-04-16T06:32:45;20.67;;;11.07;;
19951;SDS011;10137;49.406;19.484;2023-04-16T06:35:13;21.00;;;11.00;;
19951;SDS011;10137;49.406;19.484;2023-04-16T06:37:41;21.10;;;11.13;;
19951;SDS011;10137;49.406;19.484;2023-04-16T06:40:09;21.93;;;11.63;;
19951;SDS011;10137;49.406;19.484;2023-04-16T06:42:38;21.63;;;12.50;;
19951;SDS011;10137;49.406;19.484;2023-04-16T06:45:06;18.03;;;11.00;;
19951;SDS011;10137;49.406;19.484;2023-04-16T06:47:35;32.20;;;22.20;;
19951;SDS011;10137;49.406;19.484;2023-04-16T06:50:05;24.73;;;12.70;;
19951;SDS011;10137;49.406;19.484;2023-04-16T06:52:34;19.43;;;10.70;;
19951;SDS011;10137;49.406;19.484;2023-04-16T06:55:02;17.23;;;12.83;;
19951;SDS011;10137;49.406;19.484;2023-04-16T06:57:32;18.97;;;9.07;;
19951;SDS011;10137;49.406;19.484;2023-04-16T07:00:00;18.13;;;10.27;;
19951;SDS011;10137;49.406;19.484;2023-04-16T07:02:30;18.50;;;9.77;;
19951;SDS011;10137;49.406;19.484;2023-04-16T07:04:59;23.50;;;13.00;;
19951;SDS011;10137;49.406;19.484;2023-04-16T07:07:28;22.93;;;13.37;;
19951;SDS011;10137;49.406;19.484;2023-04-16T07:09:57;17.97;;;10.20;;
19951;SDS011;10137;49.406;19.484;2023-04-16T07:12:25;18.90;;;10.00;;
19951;SDS011;10137;49.406;19.484;2023-04-16T07:14:53;14.43;;;8.83;;
19951;SDS011;10137;49.406;19.484;2023-04-16T07:17:20;15.23;;;8.50;;
19951;SDS011;10137;49.406;19.484;2023-04-16T07:19:50;13.67;;;9.07;;
19951;SDS011;10137;49.406;19.484;2023-04-16T07:22:18;20.30;;;10.57;;
19951;SDS011;10137;49.406;19.484;2023-04-16T07:24:48;15.60;;;8.60;;
19951;SDS011;10137;49.406;19.484;2023-04-16T07:27:16;14.43;;;8.53;;
19951;SDS011;10137;49.406;19.484;2023-04-16T07:29:44;10.80;;;7.63;;
19951;SDS011;10137;49.406;19.484;2023-04-16T07:32:12;13.00;;;7.60;;
19951;SDS011;10137;49.406;19.484;2023-04-16T07:34:40;12.07;;;7.70;;
19951;SDS011;10137;49.406;19.484;2023-04-16T07:37:09;12.03;;;7.87;;
19951;SDS011;10137;49.406;19.484;2023-04-16T07:39:37;14.63;;;8.13;;
19951;SDS011;10137;49.406;19.484;2023-04-16T07:42:07;13.63;;;9.20;;
19951;SDS011;10137;49.406;19.484;2023-04-16T07:44:35;13.13;;;8.10;;
19951;SDS011;10137;49.406;19.484;2023-04-16T07:47:03;12.97;;;8.50;;
19951;SDS011;10137;49.406;19.484;2023-04-16T07:49:32;13.90;;;8.50;;
19951;SDS011;10137;49.406;19.484;2023-04-16T07:52:00;11.83;;;8.07;;
19951;SDS011;10137;49.406;19.484;2023-04-16T07:54:28;14.90;;;8.70;;
19951;SDS011;10137;49.406;19.484;2023-04-16T07:56:57;12.30;;;7.87;;
19951;SDS011;10137;49.406;19.484;2023-04-16T07:59:30;13.63;;;9.43;;
19951;SDS011;10137;49.406;19.484;2023-04-16T08:01:59;11.60;;;7.80;;
19951;SDS011;10137;49.406;19.484;2023-04-16T08:04:27;17.57;;;8.47;;
19951;SDS011;10137;49.406;19.484;2023-04-16T08:06:55;17.17;;;8.40;;
19951;SDS011;10137;49.406;19.484;2023-04-16T08:09:25;12.37;;;7.93;;
19951;SDS011;10137;49.406;19.484;2023-04-16T08:11:54;14.40;;;8.60;;
19951;SDS011;10137;49.406;19.484;2023-04-16T08:14:22;13.90;;;7.73;;
19951;SDS011;10137;49.406;19.484;2023-04-16T08:16:51;11.17;;;7.47;;
19951;SDS011;10137;49.406;19.484;2023-04-16T08:19:19;11.10;;;7.00;;
19951;SDS011;10137;49.406;19.484;2023-04-16T08:21:47;11.70;;;6.03;;
19951;SDS011;10137;49.406;19.484;2023-04-16T08:24:15;9.07;;;5.60;;
19951;SDS011;10137;49.406;19.484;2023-04-16T08:26:44;7.03;;;4.67;;
19951;SDS011;10137;49.406;19.484;2023-04-16T08:29:12;8.60;;;5.33;;
19951;SDS011;10137;49.406;19.484;2023-04-16T08:31:40;9.43;;;5.93;;
19951;SDS011;10137;49.406;19.484;2023-04-16T08:34:10;8.83;;;6.20;;
19951;SDS011;10137;49.406;19.484;2023-04-16T08:36:39;10.27;;;6.20;;
19951;SDS011;10137;49.406;19.484;2023-04-16T08:39:07;9.53;;;6.10;;
19951;SDS011;10137;49.406;19.484;2023-04-16T08:41:35;10.90;;;6.70;;
19951;SDS011;10137;49.406;19.484;2023-04-16T08:44:07;9.57;;;7.23;;
19951;SDS011;10137;49.406;19.484;2023-04-16T08:46:37;8.53;;;6.37;;
19951;SDS011;10137;49.406;19.484;2023-04-16T08:49:08;11.03;;;6.67;;
19951;SDS011;10137;49.406;19.484;2023-04-16T08:51:44;8.53;;;6.23;;
19951;SDS011;10137;49.406;19.484;2023-04-16T08:54:18;8.37;;;5.97;;
19951;SDS011;10137;49.406;19.484;2023-04-16T08:56:54;9.80;;;6.07;;
19951;SDS011;10137;49.406;19.484;2023-04-16T08:59:25;7.73;;;5.20;;
19951;SDS011;10137;49.406;19.484;2023-04-16T09:01:55;7.10;;;4.53;;
19951;SDS011;10137;49.406;19.484;2023-04-16T09:04:26;3.30;;;2.60;;
19951;SDS011;10137;49.406;19.484;2023-04-16T09:06:55;3.30;;;2.20;;
19951;SDS011;10137;49.406;19.484;2023-04-16T09:09:25;5.67;;;1.93;;
19951;SDS011;10137;49.406;19.484;2023-04-16T09:11:53;3.00;;;1.13;;
19951;SDS011;10137;49.406;19.484;2023-04-16T09:14:22;3.60;;;1.57;;
19951;SDS011;10137;49.406;19.484;2023-04-16T09:16:50;1.80;;;1.47;;
19951;SDS011;10137;49.406;19.484;2023-04-16T09:19:20;3.37;;;2.07;;
19951;SDS011;10137;49.406;19.484;2023-04-16T09:21:51;2.10;;;1.73;;
19951;SDS011;10137;49.406;19.484;2023-04-16T09:24:19;4.23;;;1.97;;
19951;SDS011;10137;49.406;19.484;2023-04-16T09:26:48;2.07;;;1.60;;
19951;SDS011;10137;49.406;19.484;2023-04-16T09:32:02;1.80;;;1.40;;
19951;SDS011;10137;49.406;19.484;2023-04-16T09:34:32;1.57;;;1.20;;
19951;SDS011;10137;49.406;19.484;2023-04-16T09:37:17;3.10;;;1.00;;
19951;SDS011;10137;49.406;19.484;2023-04-16T09:39:52;1.53;;;1.40;;
19951;SDS011;10137;49.406;19.484;2023-04-16T09:42:22;1.37;;;1.13;;
19951;SDS011;10137;49.406;19.484;2023-04-16T09:44:52;2.43;;;1.40;;
19951;SDS011;10137;49.406;19.484;2023-04-16T09:47:21;3.27;;;1.57;;
19951;SDS011;10137;49.406;19.484;2023-04-16T09:49:50;1.87;;;1.13;;
19951;SDS011;10137;49.406;19.484;2023-04-16T09:52:20;1.40;;;1.10;;
19951;SDS011;10137;49.406;19.484;2023-04-16T09:54:50;0.77;;;0.77;;
19951;SDS011;10137;49.406;19.484;2023-04-16T09:57:19;2.83;;;1.10;;
19951;SDS011;10137;49.406;19.484;2023-04-16T09:59:51;1.10;;;0.83;;
19951;SDS011;10137;49.406;19.484;2023-04-16T10:02:25;1.47;;;1.00;;
19951;SDS011;10137;49.406;19.484;2023-04-16T10:04:56;1.70;;;1.10;;
19951;SDS011;10137;49.406;19.484;2023-04-16T10:07:28;1.73;;;1.30;;
19951;SDS011;10137;49.406;19.484;2023-04-16T10:10:00;1.57;;;0.93;;
19951;SDS011;10137;49.406;19.484;2023-04-16T10:12:29;3.03;;;1.00;;
19951;SDS011;10137;49.406;19.484;2023-04-16T10:14:58;2.17;;;1.20;;
19951;SDS011;10137;49.406;19.484;2023-04-16T10:17:26;1.87;;;1.10;;
19951;SDS011;10137;49.406;19.484;2023-04-16T10:19:56;1.13;;;0.90;;
19951;SDS011;10137;49.406;19.484;2023-04-16T10:22:24;2.33;;;0.83;;
19951;SDS011;10137;49.406;19.484;2023-04-16T10:24:54;1.20;;;0.83;;
19951;SDS011;10137;49.406;19.484;2023-04-16T10:27:22;0.77;;;0.77;;
19951;SDS011;10137;49.406;19.484;2023-04-16T10:29:52;1.80;;;1.00;;
19951;SDS011;10137;49.406;19.484;2023-04-16T10:32:21;1.23;;;0.90;;
19951;SDS011;10137;49.406;19.484;2023-04-16T10:34:54;18.23;;;2.27;;
19951;SDS011;10137;49.406;19.484;2023-04-16T10:37:27;1.67;;;1.17;;
19951;SDS011;10137;49.406;19.484;2023-04-16T10:39:58;3.23;;;1.00;;
19951;SDS011;10137;49.406;19.484;2023-04-16T10:42:26;2.00;;;0.90;;
19951;SDS011;10137;49.406;19.484;2023-04-16T10:44:57;1.30;;;1.17;;
19951;SDS011;10137;49.406;19.484;2023-04-16T10:47:27;7.10;;;3.27;;
19951;SDS011;10137;49.406;19.484;2023-04-16T10:49:56;3.97;;;2.67;;
19951;SDS011;10137;49.406;19.484;2023-04-16T10:52:25;3.03;;;1.90;;
19951;SDS011;10137;49.406;19.484;2023-04-16T10:54:57;4.80;;;1.50;;
19951;SDS011;10137;49.406;19.484;2023-04-16T10:57:26;6.57;;;1.73;;
19951;SDS011;10137;49.406;19.484;2023-04-16T10:59:56;5.67;;;2.30;;
19951;SDS011;10137;49.406;19.484;2023-04-16T11:02:27;5.07;;;2.20;;
19951;SDS011;10137;49.406;19.484;2023-04-16T11:04:56;1.90;;;1.30;;
19951;SDS011;10137;49.406;19.484;2023-04-16T11:07:31;2.07;;;1.40;;
19951;SDS011;10137;49.406;19.484;2023-04-16T11:10:03;3.53;;;1.20;;
19951;SDS011;10137;49.406;19.484;2023-04-16T11:12:33;4.93;;;1.23;;
19951;SDS011;10137;49.406;19.484;2023-04-16T11:15:04;13.10;;;2.80;;
19951;SDS011;10137;49.406;19.484;2023-04-16T11:17:35;25.50;;;2.43;;
19951;SDS011;10137;49.406;19.484;2023-04-16T11:20:06;5.43;;;2.23;;
19951;SDS011;10137;49.406;19.484;2023-04-16T11:22:35;1.57;;;0.93;;
19951;SDS011;10137;49.406;19.484;2023-04-16T11:25:05;2.70;;;1.20;;
19951;SDS011;10137;49.406;19.484;2023-04-16T11:27:34;2.83;;;1.30;;
19951;SDS011;10137;49.406;19.484;2023-04-16T11:30:05;4.50;;;1.70;;
19951;SDS011;10137;49.406;19.484;2023-04-16T11:32:35;4.67;;;2.00;;
19951;SDS011;10137;49.406;19.484;2023-04-16T11:35:11;4.57;;;2.60;;
19951;SDS011;10137;49.406;19.484;2023-04-16T11:37:42;15.13;;;2.27;;
19951;SDS011;10137;49.406;19.484;2023-04-16T11:40:13;1.57;;;0.80;;
19951;SDS011;10137;49.406;19.484;2023-04-16T11:42:41;1.73;;;0.80;;
19951;SDS011;10137;49.406;19.484;2023-04-16T11:45:10;5.80;;;2.20;;
19951;SDS011;10137;49.406;19.484;2023-04-16T11:47:44;2.97;;;1.17;;
19951;SDS011;10137;49.406;19.484;2023-04-16T11:50:18;1.60;;;1.37;;
19951;SDS011;10137;49.406;19.484;2023-04-16T11:52:48;4.63;;;1.53;;
19951;SDS011;10137;49.406;19.484;2023-04-16T11:55:18;4.70;;;0.93;;
19951;SDS011;10137;49.406;19.484;2023-04-16T11:57:47;2.70;;;1.27;;
19951;SDS011;10137;49.406;19.484;2023-04-16T12:00:15;1.40;;;1.07;;
19951;SDS011;10137;49.406;19.484;2023-04-16T12:02:44;4.17;;;1.00;;
19951;SDS011;10137;49.406;19.484;2023-04-16T12:05:26;4.87;;;1.00;;
19951;SDS011;10137;49.406;19.484;2023-04-16T12:07:56;1.47;;;0.97;;
19951;SDS011;10137;49.406;19.484;2023-04-16T12:10:26;3.87;;;1.13;;
19951;SDS011;10137;49.406;19.484;2023-04-16T12:13:09;3.50;;;1.30;;
19951;SDS011;10137;49.406;19.484;2023-04-16T12:15:45;6.63;;;1.57;;
19951;SDS011;10137;49.406;19.484;2023-04-16T12:18:14;6.10;;;0.90;;
19951;SDS011;10137;49.406;19.484;2023-04-16T12:20:43;4.00;;;0.93;;
19951;SDS011;10137;49.406;19.484;2023-04-16T12:23:21;4.10;;;0.90;;
19951;SDS011;10137;49.406;19.484;2023-04-16T12:25:52;4.23;;;1.00;;
19951;SDS011;10137;49.406;19.484;2023-04-16T12:28:25;4.50;;;1.00;;
19951;SDS011;10137;49.406;19.484;2023-04-16T12:30:57;1.70;;;0.90;;
19951;SDS011;10137;49.406;19.484;2023-04-16T12:33:25;2.20;;;0.93;;
19951;SDS011;10137;49.406;19.484;2023-04-16T12:35:53;1.60;;;0.90;;
19951;SDS011;10137;49.406;19.484;2023-04-16T12:38:21;5.87;;;1.10;;
19951;SDS011;10137;49.406;19.484;2023-04-16T12:40:52;4.23;;;0.73;;
19951;SDS011;10137;49.406;19.484;2023-04-16T12:43:21;2.77;;;1.30;;
19951;SDS011;10137;49.406;19.484;2023-04-16T12:45:50;1.20;;;0.80;;
19951;SDS011;10137;49.406;19.484;2023-04-16T12:48:18;2.17;;;1.03;;
19951;SDS011;10137;49.406;19.484;2023-04-16T12:50:46;2.20;;;1.00;;
19951;SDS011;10137;49.406;19.484;2023-04-16T12:53:14;1.83;;;1.13;;
19951;SDS011;10137;49.406;19.484;2023-04-16T12:55:42;2.20;;;0.80;;
19951;SDS011;10137;49.406;19.484;2023-04-16T12:58:12;5.27;;;1.40;;
19951;SDS011;10137;49.406;19.484;2023-04-16T13:00:40;1.53;;;0.90;;
19951;SDS011;10137;49.406;19.484;2023-04-16T13:03:08;2.83;;;0.93;;
19951;SDS011;10137;49.406;19.484;2023-04-16T13:05:37;1.03;;;0.80;;
19951;SDS011;10137;49.406;19.484;2023-04-16T13:08:05;1.63;;;0.90;;
19951;SDS011;10137;49.406;19.484;2023-04-16T13:10:33;3.53;;;0.83;;
19951;SDS011;10137;49.406;19.484;2023-04-16T13:13:02;1.23;;;0.73;;
19951;SDS011;10137;49.406;19.484;2023-04-16T13:15:31;2.50;;;1.10;;
19951;SDS011;10137;49.406;19.484;2023-04-16T13:17:59;2.70;;;0.70;;
19951;SDS011;10137;49.406;19.484;2023-04-16T13:20:28;3.20;;;1.03;;
19951;SDS011;10137;49.406;19.484;2023-04-16T13:22:56;2.07;;;1.00;;
19951;SDS011;10137;49.406;19.484;2023-04-16T13:25:24;3.60;;;1.30;;
19951;SDS011;10137;49.406;19.484;2023-04-16T13:27:56;1.03;;;0.90;;
19951;SDS011;10137;49.406;19.484;2023-04-16T13:30:24;4.27;;;2.50;;
19951;SDS011;10137;49.406;19.484;2023-04-16T13:32:55;4.50;;;0.90;;
19951;SDS011;10137;49.406;19.484;2023-04-16T13:35:24;4.67;;;0.90;;
19951;SDS011;10137;49.406;19.484;2023-04-16T13:37:52;3.33;;;1.03;;
19951;SDS011;10137;49.406;19.484;2023-04-16T13:40:21;1.87;;;0.90;;
19951;SDS011;10137;49.406;19.484;2023-04-16T13:42:51;4.10;;;1.60;;
19951;SDS011;10137;49.406;19.484;2023-04-16T13:45:18;3.80;;;1.40;;
19951;SDS011;10137;49.406;19.484;2023-04-16T13:47:47;6.07;;;1.70;;
19951;SDS011;10137;49.406;19.484;2023-04-16T13:50:16;1.93;;;1.33;;
19951;SDS011;10137;49.406;19.484;2023-04-16T13:52:46;2.90;;;1.20;;
19951;SDS011;10137;49.406;19.484;2023-04-16T13:55:15;2.63;;;0.90;;
19951;SDS011;10137;49.406;19.484;2023-04-16T13:57:44;3.90;;;1.33;;
19951;SDS011;10137;49.406;19.484;2023-04-16T14:00:18;3.90;;;1.50;;
19951;SDS011;10137;49.406;19.484;2023-04-16T14:02:46;11.33;;;5.60;;
19951;SDS011;10137;49.406;19.484;2023-04-16T14:05:13;5.33;;;3.20;;
19951;SDS011;10137;49.406;19.484;2023-04-16T14:07:44;17.13;;;7.67;;
19951;SDS011;10137;49.406;19.484;2023-04-16T14:10:15;5.50;;;2.73;;
19951;SDS011;10137;49.406;19.484;2023-04-16T14:12:44;12.57;;;7.50;;
19951;SDS011;10137;49.406;19.484;2023-04-16T14:15:12;5.67;;;3.70;;
19951;SDS011;10137;49.406;19.484;2023-04-16T14:17:44;4.67;;;2.40;;
19951;SDS011;10137;49.406;19.484;2023-04-16T14:20:11;3.93;;;2.20;;
19951;SDS011;10137;49.406;19.484;2023-04-16T14:22:42;2.43;;;1.70;;
19951;SDS011;10137;49.406;19.484;2023-04-16T14:25:13;3.97;;;1.27;;
19951;SDS011;10137;49.406;19.484;2023-04-16T14:27:41;3.07;;;1.63;;
19951;SDS011;10137;49.406;19.484;2023-04-16T14:30:09;3.03;;;1.53;;
19951;SDS011;10137;49.406;19.484;2023-04-16T14:32:38;10.20;;;4.90;;
19951;SDS011;10137;49.406;19.484;2023-04-16T14:35:06;6.30;;;1.93;;
19951;SDS011;10137;49.406;19.484;2023-04-16T14:37:35;6.33;;;2.47;;